sensor_id;sensor_type;location;lat;lon;timestamp;temperature;humidity
8872;DHT22;4472;52.092;9.820;2022-12-16T00:02:16;-7.30;99.90
8872;DHT22;4472;52.092;9.820;2022-12-16T00:05:04;-7.30;99.90
8872;DHT22;4472;52.092;9.820;2022-12-16T00:07:51;-7.30;99.90
8872;DHT22;4472;52.092;9.820;2022-12-16T00:10:41;-7.30;99.90
8872;DHT22;4472;52.092;9.820;2022-12-16T00:13:46;-7.40;99.90
8872;DHT22;4472;52.092;9.820;2022-12-16T00:16:33;-7.30;99.90
8872;DHT22;4472;52.092;9.820;2022-12-16T00:19:20;-7.40;99.90
8872;DHT22;4472;52.092;9.820;2022-12-16T00:22:07;-7.40;99.90
8872;DHT22;4472;52.092;9.820;2022-12-16T00:24:54;-7.50;99.90
8872;DHT22;4472;52.092;9.820;2022-12-16T00:27:43;-7.50;99.90
8872;DHT22;4472;52.092;9.820;2022-12-16T00:30:30;-7.50;99.90
8872;DHT22;4472;52.092;9.820;2022-12-16T00:33:18;-7.50;99.90
8872;DHT22;4472;52.092;9.820;2022-12-16T00:36:06;-7.50;99.90
8872;DHT22;4472;52.092;9.820;2022-12-16T00:38:54;-7.50;99.90
8872;DHT22;4472;52.092;9.820;2022-12-16T00:41:41;-7.50;99.90
8872;DHT22;4472;52.092;9.820;2022-12-16T00:44:29;-7.50;99.90
8872;DHT22;4472;52.092;9.820;2022-12-16T00:47:17;-7.50;99.90
8872;DHT22;4472;52.092;9.820;2022-12-16T00:50:05;-7.50;99.90
8872;DHT22;4472;52.092;9.820;2022-12-16T00:52:52;-7.50;99.90
8872;DHT22;4472;52.092;9.820;2022-12-16T00:55:40;-7.50;99.90
8872;DHT22;4472;52.092;9.820;2022-12-16T00:58:27;-7.60;99.90
8872;DHT22;4472;52.092;9.820;2022-12-16T01:01:15;-7.60;99.90
8872;DHT22;4472;52.092;9.820;2022-12-16T01:04:03;-7.60;99.90
8872;DHT22;4472;52.092;9.820;2022-12-16T01:06:50;-7.60;99.90
8872;DHT22;4472;52.092;9.820;2022-12-16T01:09:39;-7.60;99.90
8872;DHT22;4472;52.092;9.820;2022-12-16T01:12:27;-7.60;99.90
8872;DHT22;4472;52.092;9.820;2022-12-16T01:15:14;-7.70;99.90
8872;DHT22;4472;52.092;9.820;2022-12-16T01:18:03;-7.70;99.90
8872;DHT22;4472;52.092;9.820;2022-12-16T01:20:51;-7.70;99.90
8872;DHT22;4472;52.092;9.820;2022-12-16T01:23:38;-7.70;99.90
8872;DHT22;4472;52.092;9.820;2022-12-16T01:26:25;-7.70;99.90
8872;DHT22;4472;52.092;9.820;2022-12-16T01:29:13;-7.70;99.90
8872;DHT22;4472;52.092;9.820;2022-12-16T01:32:00;-7.70;99.90
8872;DHT22;4472;52.092;9.820;2022-12-16T01:34:50;-7.70;99.90
8872;DHT22;4472;52.092;9.820;2022-12-16T01:37:37;-7.70;99.90
8872;DHT22;4472;52.092;9.820;2022-12-16T01:40:25;-7.70;99.90
8872;DHT22;4472;52.092;9.820;2022-12-16T01:43:13;-7.80;99.90
8872;DHT22;4472;52.092;9.820;2022-12-16T01:46:03;-7.80;99.90
8872;DHT22;4472;52.092;9.820;2022-12-16T01:48:56;-7.80;99.90
8872;DHT22;4472;52.092;9.820;2022-12-16T01:51:46;-7.80;99.90
8872;DHT22;4472;52.092;9.820;2022-12-16T01:54:36;-7.70;99.90
8872;DHT22;4472;52.092;9.820;2022-12-16T01:57:28;-7.80;99.90
8872;DHT22;4472;52.092;9.820;2022-12-16T02:00:16;-7.90;99.90
8872;DHT22;4472;52.092;9.820;2022-12-16T02:03:04;-7.90;99.90
8872;DHT22;4472;52.092;9.820;2022-12-16T02:05:52;-7.90;99.90
8872;DHT22;4472;52.092;9.820;2022-12-16T02:08:41;-7.80;99.90
8872;DHT22;4472;52.092;9.820;2022-12-16T02:11:40;-7.80;99.90
8872;DHT22;4472;52.092;9.820;2022-12-16T02:14:44;-7.80;99.90
8872;DHT22;4472;52.092;9.820;2022-12-16T02:17:40;-7.80;99.90
8872;DHT22;4472;52.092;9.820;2022-12-16T02:24:38;-7.90;99.90
8872;DHT22;4472;52.092;9.820;2022-12-16T02:27:44;-7.90;99.90
8872;DHT22;4472;52.092;9.820;2022-12-16T02:30:59;-7.90;99.90
8872;DHT22;4472;52.092;9.820;2022-12-16T02:34:07;-7.90;99.90
8872;DHT22;4472;52.092;9.820;2022-12-16T02:37:04;-7.90;99.90
8872;DHT22;4472;52.092;9.820;2022-12-16T02:39:58;-7.90;99.90
8872;DHT22;4472;52.092;9.820;2022-12-16T02:42:49;-7.90;99.90
8872;DHT22;4472;52.092;9.820;2022-12-16T02:45:41;-7.90;99.90
8872;DHT22;4472;52.092;9.820;2022-12-16T02:48:28;-7.90;99.90
8872;DHT22;4472;52.092;9.820;2022-12-16T02:51:16;-7.90;99.90
8872;DHT22;4472;52.092;9.820;2022-12-16T02:54:05;-8.00;99.90
8872;DHT22;4472;52.092;9.820;2022-12-16T02:57:03;-8.00;99.90
8872;DHT22;4472;52.092;9.820;2022-12-16T03:00:01;-8.00;99.90
8872;DHT22;4472;52.092;9.820;2022-12-16T03:02:54;-8.00;99.90
8872;DHT22;4472;52.092;9.820;2022-12-16T03:05:45;-8.00;99.90
8872;DHT22;4472;52.092;9.820;2022-12-16T03:08:36;-8.00;99.90
8872;DHT22;4472;52.092;9.820;2022-12-16T03:11:26;-8.00;99.90
8872;DHT22;4472;52.092;9.820;2022-12-16T03:14:15;-8.10;99.90
8872;DHT22;4472;52.092;9.820;2022-12-16T03:17:05;-8.10;99.90
8872;DHT22;4472;52.092;9.820;2022-12-16T03:20:02;-8.10;99.90
8872;DHT22;4472;52.092;9.820;2022-12-16T03:22:54;-8.10;99.90
8872;DHT22;4472;52.092;9.820;2022-12-16T03:25:44;-8.20;99.90
8872;DHT22;4472;52.092;9.820;2022-12-16T03:28:41;-8.20;99.90
8872;DHT22;4472;52.092;9.820;2022-12-16T03:31:33;-8.20;99.90
8872;DHT22;4472;52.092;9.820;2022-12-16T03:34:30;-8.20;99.90
8872;DHT22;4472;52.092;9.820;2022-12-16T03:37:23;-8.20;99.90
8872;DHT22;4472;52.092;9.820;2022-12-16T03:40:12;-8.30;99.90
8872;DHT22;4472;52.092;9.820;2022-12-16T03:43:00;-8.20;99.90
8872;DHT22;4472;52.092;9.820;2022-12-16T03:45:51;-8.20;99.90
8872;DHT22;4472;52.092;9.820;2022-12-16T03:48:45;-8.20;99.90
8872;DHT22;4472;52.092;9.820;2022-12-16T03:51:32;-8.30;99.90
8872;DHT22;4472;52.092;9.820;2022-12-16T03:54:21;-8.30;99.90
8872;DHT22;4472;52.092;9.820;2022-12-16T03:57:09;-8.30;99.90
8872;DHT22;4472;52.092;9.820;2022-12-16T03:59:57;-8.30;99.90
8872;DHT22;4472;52.092;9.820;2022-12-16T04:02:44;-8.30;99.90
8872;DHT22;4472;52.092;9.820;2022-12-16T04:05:32;-8.30;99.90
8872;DHT22;4472;52.092;9.820;2022-12-16T04:08:19;-8.30;99.90
8872;DHT22;4472;52.092;9.820;2022-12-16T04:11:08;-8.30;99.90
8872;DHT22;4472;52.092;9.820;2022-12-16T04:14:13;-8.30;99.90
8872;DHT22;4472;52.092;9.820;2022-12-16T04:17:17;-8.30;99.90
8872;DHT22;4472;52.092;9.820;2022-12-16T04:20:24;-8.30;99.90
8872;DHT22;4472;52.092;9.820;2022-12-16T04:23:33;-8.20;99.90
8872;DHT22;4472;52.092;9.820;2022-12-16T04:26:40;-8.30;99.90
8872;DHT22;4472;52.092;9.820;2022-12-16T04:29:41;-8.30;99.90
8872;DHT22;4472;52.092;9.820;2022-12-16T04:32:42;-8.30;99.90
8872;DHT22;4472;52.092;9.820;2022-12-16T04:35:47;-8.40;99.90
8872;DHT22;4472;52.092;9.820;2022-12-16T04:38:52;-8.40;99.90
8872;DHT22;4472;52.092;9.820;2022-12-16T04:41:58;-8.40;99.90
8872;DHT22;4472;52.092;9.820;2022-12-16T04:45:04;-8.40;99.90
8872;DHT22;4472;52.092;9.820;2022-12-16T04:48:08;-8.40;99.90
8872;DHT22;4472;52.092;9.820;2022-12-16T04:51:13;-8.50;99.90
8872;DHT22;4472;52.092;9.820;2022-12-16T04:54:18;-8.40;99.90
8872;DHT22;4472;52.092;9.820;2022-12-16T04:57:24;-8.50;99.90
8872;DHT22;4472;52.092;9.820;2022-12-16T05:00:29;-8.60;99.90
8872;DHT22;4472;52.092;9.820;2022-12-16T05:03:34;-8.60;99.90
8872;DHT22;4472;52.092;9.820;2022-12-16T05:06:38;-8.50;99.90
8872;DHT22;4472;52.092;9.820;2022-12-16T05:09:43;-8.50;99.90
8872;DHT22;4472;52.092;9.820;2022-12-16T05:12:51;-8.40;99.90
8872;DHT22;4472;52.092;9.820;2022-12-16T05:15:56;-8.40;99.90
8872;DHT22;4472;52.092;9.820;2022-12-16T05:19:01;-8.30;99.90
8872;DHT22;4472;52.092;9.820;2022-12-16T05:22:05;-8.30;99.90
8872;DHT22;4472;52.092;9.820;2022-12-16T05:25:10;-8.30;99.90
8872;DHT22;4472;52.092;9.820;2022-12-16T05:28:16;-8.40;99.90
8872;DHT22;4472;52.092;9.820;2022-12-16T05:31:21;-8.40;99.90
8872;DHT22;4472;52.092;9.820;2022-12-16T05:34:25;-8.40;99.90
8872;DHT22;4472;52.092;9.820;2022-12-16T05:37:30;-8.40;99.90
8872;DHT22;4472;52.092;9.820;2022-12-16T05:40:35;-8.50;99.90
8872;DHT22;4472;52.092;9.820;2022-12-16T05:43:41;-8.50;99.90
8872;DHT22;4472;52.092;9.820;2022-12-16T05:46:45;-8.50;99.90
8872;DHT22;4472;52.092;9.820;2022-12-16T05:49:50;-8.50;99.90
8872;DHT22;4472;52.092;9.820;2022-12-16T05:52:55;-8.50;99.90
8872;DHT22;4472;52.092;9.820;2022-12-16T05:56:00;-8.50;99.90
8872;DHT22;4472;52.092;9.820;2022-12-16T05:59:06;-8.60;99.90
8872;DHT22;4472;52.092;9.820;2022-12-16T06:02:11;-9.40;99.90
8872;DHT22;4472;52.092;9.820;2022-12-16T06:05:16;-8.80;99.90
8872;DHT22;4472;52.092;9.820;2022-12-16T06:08:20;-8.70;99.90
8872;DHT22;4472;52.092;9.820;2022-12-16T06:11:24;-8.70;99.90
8872;DHT22;4472;52.092;9.820;2022-12-16T06:14:30;-8.70;99.90
8872;DHT22;4472;52.092;9.820;2022-12-16T06:17:31;-8.70;99.90
8872;DHT22;4472;52.092;9.820;2022-12-16T06:20:36;-8.70;99.90
8872;DHT22;4472;52.092;9.820;2022-12-16T06:23:41;-8.70;99.90
8872;DHT22;4472;52.092;9.820;2022-12-16T06:26:45;-8.70;99.90
8872;DHT22;4472;52.092;9.820;2022-12-16T06:29:51;-8.70;99.90
8872;DHT22;4472;52.092;9.820;2022-12-16T06:32:56;-8.70;99.90
8872;DHT22;4472;52.092;9.820;2022-12-16T06:36:01;-8.80;99.90
8872;DHT22;4472;52.092;9.820;2022-12-16T06:39:06;-7.70;99.90
8872;DHT22;4472;52.092;9.820;2022-12-16T06:42:10;-8.90;99.90
8872;DHT22;4472;52.092;9.820;2022-12-16T06:45:16;-8.90;99.90
8872;DHT22;4472;52.092;9.820;2022-12-16T06:48:21;-8.90;99.90
8872;DHT22;4472;52.092;9.820;2022-12-16T06:51:26;-8.80;99.90
8872;DHT22;4472;52.092;9.820;2022-12-16T06:54:30;-8.80;99.90
8872;DHT22;4472;52.092;9.820;2022-12-16T06:57:35;-8.80;99.90
8872;DHT22;4472;52.092;9.820;2022-12-16T07:00:41;-8.90;99.90
8872;DHT22;4472;52.092;9.820;2022-12-16T07:03:46;-8.80;99.90
8872;DHT22;4472;52.092;9.820;2022-12-16T07:06:51;-8.80;99.90
8872;DHT22;4472;52.092;9.820;2022-12-16T07:09:55;-8.80;99.90
8872;DHT22;4472;52.092;9.820;2022-12-16T07:13:00;-8.70;99.90
8872;DHT22;4472;52.092;9.820;2022-12-16T07:16:06;-8.20;99.90
8872;DHT22;4472;52.092;9.820;2022-12-16T07:19:11;-7.80;99.90
8872;DHT22;4472;52.092;9.820;2022-12-16T07:22:14;-7.90;99.90
8872;DHT22;4472;52.092;9.820;2022-12-16T07:25:19;-8.10;99.90
8872;DHT22;4472;52.092;9.820;2022-12-16T07:28:24;-8.30;99.90
8872;DHT22;4472;52.092;9.820;2022-12-16T07:31:30;-8.50;99.90
8872;DHT22;4472;52.092;9.820;2022-12-16T07:34:34;-8.50;99.90
8872;DHT22;4472;52.092;9.820;2022-12-16T07:37:39;-8.50;99.90
8872;DHT22;4472;52.092;9.820;2022-12-16T07:40:44;-8.60;99.90
8872;DHT22;4472;52.092;9.820;2022-12-16T07:43:48;-8.60;99.90
8872;DHT22;4472;52.092;9.820;2022-12-16T07:46:54;-8.60;99.90
8872;DHT22;4472;52.092;9.820;2022-12-16T07:49:59;-8.50;99.90
8872;DHT22;4472;52.092;9.820;2022-12-16T07:53:04;-8.40;99.90
8872;DHT22;4472;52.092;9.820;2022-12-16T07:56:08;-8.40;99.90
8872;DHT22;4472;52.092;9.820;2022-12-16T07:59:13;-8.30;99.90
8872;DHT22;4472;52.092;9.820;2022-12-16T08:02:19;-8.20;99.90
8872;DHT22;4472;52.092;9.820;2022-12-16T08:05:24;-8.10;99.90
8872;DHT22;4472;52.092;9.820;2022-12-16T08:08:47;-7.90;99.90
8872;DHT22;4472;52.092;9.820;2022-12-16T08:11:57;-7.70;99.90
8872;DHT22;4472;52.092;9.820;2022-12-16T08:15:08;-7.60;99.90
8872;DHT22;4472;52.092;9.820;2022-12-16T08:18:14;-7.40;99.90
8872;DHT22;4472;52.092;9.820;2022-12-16T08:21:22;-7.20;99.90
8872;DHT22;4472;52.092;9.820;2022-12-16T08:24:32;-7.00;99.90
8872;DHT22;4472;52.092;9.820;2022-12-16T08:31:01;-6.70;99.90
8872;DHT22;4472;52.092;9.820;2022-12-16T08:34:07;-6.60;99.90
8872;DHT22;4472;52.092;9.820;2022-12-16T08:37:12;-6.40;99.90
8872;DHT22;4472;52.092;9.820;2022-12-16T08:40:16;-6.30;99.90
8872;DHT22;4472;52.092;9.820;2022-12-16T08:43:21;-6.10;99.90
8872;DHT22;4472;52.092;9.820;2022-12-16T08:46:26;-5.90;99.90
8872;DHT22;4472;52.092;9.820;2022-12-16T08:49:32;-5.80;99.90
8872;DHT22;4472;52.092;9.820;2022-12-16T08:52:36;-5.60;99.90
8872;DHT22;4472;52.092;9.820;2022-12-16T08:55:41;-5.50;99.90
8872;DHT22;4472;52.092;9.820;2022-12-16T08:58:46;-5.40;99.90
8872;DHT22;4472;52.092;9.820;2022-12-16T09:01:51;-5.30;99.90
8872;DHT22;4472;52.092;9.820;2022-12-16T09:04:57;-5.20;99.90
8872;DHT22;4472;52.092;9.820;2022-12-16T09:08:02;-5.10;99.90
8872;DHT22;4472;52.092;9.820;2022-12-16T09:11:07;-5.00;99.90
8872;DHT22;4472;52.092;9.820;2022-12-16T09:14:12;-4.90;99.90
8872;DHT22;4472;52.092;9.820;2022-12-16T09:17:16;-4.80;99.90
8872;DHT22;4472;52.092;9.820;2022-12-16T09:20:22;-4.70;99.90
8872;DHT22;4472;52.092;9.820;2022-12-16T09:23:27;-4.60;99.90
8872;DHT22;4472;52.092;9.820;2022-12-16T09:26:32;-4.50;99.90
8872;DHT22;4472;52.092;9.820;2022-12-16T09:29:37;-4.30;99.90
8872;DHT22;4472;52.092;9.820;2022-12-16T09:32:42;-4.20;99.90
8872;DHT22;4472;52.092;9.820;2022-12-16T09:35:48;-4.10;99.90
8872;DHT22;4472;52.092;9.820;2022-12-16T09:38:53;-4.00;99.90
8872;DHT22;4472;52.092;9.820;2022-12-16T09:42:02;-3.90;99.90
8872;DHT22;4472;52.092;9.820;2022-12-16T09:45:14;-3.70;99.90
8872;DHT22;4472;52.092;9.820;2022-12-16T09:48:25;-3.70;99.90
8872;DHT22;4472;52.092;9.820;2022-12-16T09:51:35;-3.60;99.90
8872;DHT22;4472;52.092;9.820;2022-12-16T09:54:43;-3.50;99.90
8872;DHT22;4472;52.092;9.820;2022-12-16T09:57:49;-3.40;99.90
8872;DHT22;4472;52.092;9.820;2022-12-16T10:00:54;-3.20;99.90
8872;DHT22;4472;52.092;9.820;2022-12-16T10:03:59;-3.10;99.90
8872;DHT22;4472;52.092;9.820;2022-12-16T10:07:09;-3.00;99.90
8872;DHT22;4472;52.092;9.820;2022-12-16T10:10:19;-2.90;99.90
8872;DHT22;4472;52.092;9.820;2022-12-16T10:13:31;-2.80;99.90
8872;DHT22;4472;52.092;9.820;2022-12-16T10:16:45;-2.60;99.90
8872;DHT22;4472;52.092;9.820;2022-12-16T10:19:55;-2.50;99.90
8872;DHT22;4472;52.092;9.820;2022-12-16T10:23:07;-2.50;99.90
8872;DHT22;4472;52.092;9.820;2022-12-16T10:26:18;-2.20;99.90
8872;DHT22;4472;52.092;9.820;2022-12-16T10:29:26;-2.10;99.90
8872;DHT22;4472;52.092;9.820;2022-12-16T10:32:37;-2.00;99.90
8872;DHT22;4472;52.092;9.820;2022-12-16T10:35:46;-1.90;99.90
8872;DHT22;4472;52.092;9.820;2022-12-16T10:38:54;-1.80;99.90
8872;DHT22;4472;52.092;9.820;2022-12-16T10:42:01;-1.70;99.90
8872;DHT22;4472;52.092;9.820;2022-12-16T10:45:16;-1.60;99.90
8872;DHT22;4472;52.092;9.820;2022-12-16T10:48:24;-1.50;99.90
8872;DHT22;4472;52.092;9.820;2022-12-16T10:51:38;-1.50;99.90
8872;DHT22;4472;52.092;9.820;2022-12-16T10:54:50;-1.40;99.90
8872;DHT22;4472;52.092;9.820;2022-12-16T10:57:59;-1.40;99.90
8872;DHT22;4472;52.092;9.820;2022-12-16T11:04:29;-1.20;99.90
8872;DHT22;4472;52.092;9.820;2022-12-16T11:07:38;-1.10;99.90
8872;DHT22;4472;52.092;9.820;2022-12-16T11:10:44;-1.00;99.90
8872;DHT22;4472;52.092;9.820;2022-12-16T11:13:49;-0.80;99.90
8872;DHT22;4472;52.092;9.820;2022-12-16T11:17:11;-0.30;99.90
8872;DHT22;4472;52.092;9.820;2022-12-16T11:20:18;-0.60;99.90
8872;DHT22;4472;52.092;9.820;2022-12-16T11:23:24;-0.50;99.90
8872;DHT22;4472;52.092;9.820;2022-12-16T11:26:30;-0.40;99.90
8872;DHT22;4472;52.092;9.820;2022-12-16T11:29:57;-0.40;99.90
8872;DHT22;4472;52.092;9.820;2022-12-16T11:33:10;-0.40;99.90
8872;DHT22;4472;52.092;9.820;2022-12-16T11:36:19;-0.40;99.90
8872;DHT22;4472;52.092;9.820;2022-12-16T11:39:28;-0.30;99.90
8872;DHT22;4472;52.092;9.820;2022-12-16T11:42:35;-0.20;99.90
8872;DHT22;4472;52.092;9.820;2022-12-16T11:45:41;-0.20;99.90
8872;DHT22;4472;52.092;9.820;2022-12-16T11:48:49;-0.10;99.90
8872;DHT22;4472;52.092;9.820;2022-12-16T11:52:00;-0.10;99.90
8872;DHT22;4472;52.092;9.820;2022-12-16T11:55:17;0.00;99.90
8872;DHT22;4472;52.092;9.820;2022-12-16T11:58:28;0.10;99.90
8872;DHT22;4472;52.092;9.820;2022-12-16T12:01:51;0.20;99.90
8872;DHT22;4472;52.092;9.820;2022-12-16T12:04:58;0.40;99.90
8872;DHT22;4472;52.092;9.820;2022-12-16T12:08:07;0.50;99.90
8872;DHT22;4472;52.092;9.820;2022-12-16T12:11:20;0.60;99.90
8872;DHT22;4472;52.092;9.820;2022-12-16T12:14:32;0.60;99.90
8872;DHT22;4472;52.092;9.820;2022-12-16T12:17:40;0.70;99.90
8872;DHT22;4472;52.092;9.820;2022-12-16T12:20:52;0.80;99.90
8872;DHT22;4472;52.092;9.820;2022-12-16T12:24:07;1.00;99.90
8872;DHT22;4472;52.092;9.820;2022-12-16T12:27:21;1.10;99.90
8872;DHT22;4472;52.092;9.820;2022-12-16T12:30:31;1.20;99.90
8872;DHT22;4472;52.092;9.820;2022-12-16T12:33:51;1.20;99.90
8872;DHT22;4472;52.092;9.820;2022-12-16T12:37:06;1.30;99.90
8872;DHT22;4472;52.092;9.820;2022-12-16T12:40:22;1.30;99.90
8872;DHT22;4472;52.092;9.820;2022-12-16T12:43:35;1.20;99.90
8872;DHT22;4472;52.092;9.820;2022-12-16T12:46:48;1.10;99.90
8872;DHT22;4472;52.092;9.820;2022-12-16T12:49:58;1.00;99.90
8872;DHT22;4472;52.092;9.820;2022-12-16T12:53:12;0.80;99.90
8872;DHT22;4472;52.092;9.820;2022-12-16T12:56:26;0.70;99.90
8872;DHT22;4472;52.092;9.820;2022-12-16T12:59:50;0.70;99.90
8872;DHT22;4472;52.092;9.820;2022-12-16T13:03:03;0.60;99.90
8872;DHT22;4472;52.092;9.820;2022-12-16T13:06:09;0.60;99.90
8872;DHT22;4472;52.092;9.820;2022-12-16T13:09:28;0.60;99.90
8872;DHT22;4472;52.092;9.820;2022-12-16T13:12:33;0.70;99.90
8872;DHT22;4472;52.092;9.820;2022-12-16T13:15:38;0.80;99.90
8872;DHT22;4472;52.092;9.820;2022-12-16T13:18:44;0.80;99.90
8872;DHT22;4472;52.092;9.820;2022-12-16T13:21:49;0.90;99.90
8872;DHT22;4472;52.092;9.820;2022-12-16T13:24:54;0.90;99.90
8872;DHT22;4472;52.092;9.820;2022-12-16T13:27:59;1.00;99.90
8872;DHT22;4472;52.092;9.820;2022-12-16T13:31:04;1.00;99.90
8872;DHT22;4472;52.092;9.820;2022-12-16T13:34:24;1.00;99.90
8872;DHT22;4472;52.092;9.820;2022-12-16T13:37:30;1.00;99.90
8872;DHT22;4472;52.092;9.820;2022-12-16T13:40:48;1.00;99.90
8872;DHT22;4472;52.092;9.820;2022-12-16T13:43:54;1.00;99.90
8872;DHT22;4472;52.092;9.820;2022-12-16T13:46:59;1.00;99.90
8872;DHT22;4472;52.092;9.820;2022-12-16T13:50:34;1.10;99.90
8872;DHT22;4472;52.092;9.820;2022-12-16T13:53:42;1.10;99.90
8872;DHT22;4472;52.092;9.820;2022-12-16T13:56:48;0.60;99.90
8872;DHT22;4472;52.092;9.820;2022-12-16T13:59:53;1.10;99.90
8872;DHT22;4472;52.092;9.820;2022-12-16T14:02:58;1.10;99.90
8872;DHT22;4472;52.092;9.820;2022-12-16T14:06:18;1.10;99.90
8872;DHT22;4472;52.092;9.820;2022-12-16T14:09:31;1.10;99.90
8872;DHT22;4472;52.092;9.820;2022-12-16T14:12:55;1.10;99.90
8872;DHT22;4472;52.092;9.820;2022-12-16T14:16:10;1.00;99.90
8872;DHT22;4472;52.092;9.820;2022-12-16T14:19:22;1.00;99.90
8872;DHT22;4472;52.092;9.820;2022-12-16T14:22:48;1.00;99.90
8872;DHT22;4472;52.092;9.820;2022-12-16T14:25:56;0.90;99.90
8872;DHT22;4472;52.092;9.820;2022-12-16T14:29:02;1.00;99.90
8872;DHT22;4472;52.092;9.820;2022-12-16T14:32:20;1.00;99.90
8872;DHT22;4472;52.092;9.820;2022-12-16T14:35:26;0.90;99.90
8872;DHT22;4472;52.092;9.820;2022-12-16T14:38:35;0.90;99.90
8872;DHT22;4472;52.092;9.820;2022-12-16T14:41:39;0.90;99.90
8872;DHT22;4472;52.092;9.820;2022-12-16T14:44:44;0.80;99.90
8872;DHT22;4472;52.092;9.820;2022-12-16T14:47:51;0.80;99.90
8872;DHT22;4472;52.092;9.820;2022-12-16T14:50:55;0.80;99.90
8872;DHT22;4472;52.092;9.820;2022-12-16T14:54:22;0.80;99.90
8872;DHT22;4472;52.092;9.820;2022-12-16T14:57:28;0.80;99.90
8872;DHT22;4472;52.092;9.820;2022-12-16T15:00:34;0.70;99.90
8872;DHT22;4472;52.092;9.820;2022-12-16T15:03:40;0.70;99.90
8872;DHT22;4472;52.092;9.820;2022-12-16T15:06:47;0.60;99.90
8872;DHT22;4472;52.092;9.820;2022-12-16T15:09:54;0.60;99.90
8872;DHT22;4472;52.092;9.820;2022-12-16T15:12:59;0.60;99.90
8872;DHT22;4472;52.092;9.820;2022-12-16T15:16:04;0.50;99.90
8872;DHT22;4472;52.092;9.820;2022-12-16T15:19:17;0.50;99.90
8872;DHT22;4472;52.092;9.820;2022-12-16T15:22:22;0.40;99.90
8872;DHT22;4472;52.092;9.820;2022-12-16T15:25:28;0.40;99.90
8872;DHT22;4472;52.092;9.820;2022-12-16T15:28:38;0.40;99.90
8872;DHT22;4472;52.092;9.820;2022-12-16T15:31:43;0.30;99.90
8872;DHT22;4472;52.092;9.820;2022-12-16T15:34:48;0.30;99.90
8872;DHT22;4472;52.092;9.820;2022-12-16T15:37:53;0.20;99.90
8872;DHT22;4472;52.092;9.820;2022-12-16T15:40:59;0.10;99.90
8872;DHT22;4472;52.092;9.820;2022-12-16T15:44:03;0.10;99.90
8872;DHT22;4472;52.092;9.820;2022-12-16T15:47:19;0.00;99.90
8872;DHT22;4472;52.092;9.820;2022-12-16T15:50:27;0.00;99.90
8872;DHT22;4472;52.092;9.820;2022-12-16T15:53:38;0.00;99.90
8872;DHT22;4472;52.092;9.820;2022-12-16T15:56:44;-0.10;99.90
8872;DHT22;4472;52.092;9.820;2022-12-16T15:59:55;-0.10;99.90
8872;DHT22;4472;52.092;9.820;2022-12-16T16:03:00;-0.10;99.90
8872;DHT22;4472;52.092;9.820;2022-12-16T16:06:15;-0.10;99.90
8872;DHT22;4472;52.092;9.820;2022-12-16T16:09:21;-0.20;99.90
8872;DHT22;4472;52.092;9.820;2022-12-16T16:12:28;-0.20;99.90
8872;DHT22;4472;52.092;9.820;2022-12-16T16:15:33;0.60;99.90
8872;DHT22;4472;52.092;9.820;2022-12-16T16:18:41;-0.40;99.90
8872;DHT22;4472;52.092;9.820;2022-12-16T16:21:46;-0.40;99.90
8872;DHT22;4472;52.092;9.820;2022-12-16T16:24:50;-0.50;99.90
8872;DHT22;4472;52.092;9.820;2022-12-16T16:27:56;-0.60;99.90
8872;DHT22;4472;52.092;9.820;2022-12-16T16:31:01;-0.70;99.90
8872;DHT22;4472;52.092;9.820;2022-12-16T16:34:06;0.90;99.90
8872;DHT22;4472;52.092;9.820;2022-12-16T16:37:13;-0.80;99.90
8872;DHT22;4472;52.092;9.820;2022-12-16T16:40:26;-0.90;99.90
8872;DHT22;4472;52.092;9.820;2022-12-16T16:43:33;-0.90;99.90
8872;DHT22;4472;52.092;9.820;2022-12-16T16:46:40;-1.00;99.90
8872;DHT22;4472;52.092;9.820;2022-12-16T16:49:46;-1.10;99.90
8872;DHT22;4472;52.092;9.820;2022-12-16T16:52:51;-1.10;99.90
8872;DHT22;4472;52.092;9.820;2022-12-16T16:55:56;-1.10;99.90
8872;DHT22;4472;52.092;9.820;2022-12-16T16:59:03;-1.20;99.90
8872;DHT22;4472;52.092;9.820;2022-12-16T17:02:15;-1.20;99.90
8872;DHT22;4472;52.092;9.820;2022-12-16T17:05:21;-1.30;99.90
8872;DHT22;4472;52.092;9.820;2022-12-16T17:08:25;-1.40;99.90
8872;DHT22;4472;52.092;9.820;2022-12-16T17:11:30;-1.40;99.90
8872;DHT22;4472;52.092;9.820;2022-12-16T17:14:37;-1.40;99.90
8872;DHT22;4472;52.092;9.820;2022-12-16T17:17:41;-1.40;99.90
8872;DHT22;4472;52.092;9.820;2022-12-16T17:20:46;-1.40;99.90
8872;DHT22;4472;52.092;9.820;2022-12-16T17:23:51;-1.40;99.90
8872;DHT22;4472;52.092;9.820;2022-12-16T17:26:56;-1.40;99.90
8872;DHT22;4472;52.092;9.820;2022-12-16T17:30:03;-1.50;99.90
8872;DHT22;4472;52.092;9.820;2022-12-16T17:33:09;-1.50;99.90
8872;DHT22;4472;52.092;9.820;2022-12-16T17:36:15;-1.50;99.90
8872;DHT22;4472;52.092;9.820;2022-12-16T17:39:20;-1.50;99.90
8872;DHT22;4472;52.092;9.820;2022-12-16T17:42:24;-1.60;99.90
8872;DHT22;4472;52.092;9.820;2022-12-16T17:45:30;-1.60;99.90
8872;DHT22;4472;52.092;9.820;2022-12-16T17:48:35;-1.60;99.90
8872;DHT22;4472;52.092;9.820;2022-12-16T17:51:40;0.70;99.90
8872;DHT22;4472;52.092;9.820;2022-12-16T17:54:45;-1.70;99.90
8872;DHT22;4472;52.092;9.820;2022-12-16T17:57:49;-1.90;99.90
8872;DHT22;4472;52.092;9.820;2022-12-16T18:01:00;-1.80;99.90
8872;DHT22;4472;52.092;9.820;2022-12-16T18:04:17;-1.90;99.90
8872;DHT22;4472;52.092;9.820;2022-12-16T18:07:22;-1.90;99.90
8872;DHT22;4472;52.092;9.820;2022-12-16T18:10:27;-1.90;99.90
8872;DHT22;4472;52.092;9.820;2022-12-16T18:13:31;-1.90;99.90
8872;DHT22;4472;52.092;9.820;2022-12-16T18:16:38;-2.00;99.90
8872;DHT22;4472;52.092;9.820;2022-12-16T18:19:43;-2.00;99.90
8872;DHT22;4472;52.092;9.820;2022-12-16T18:22:51;-2.10;99.90
8872;DHT22;4472;52.092;9.820;2022-12-16T18:25:57;-2.10;99.90
8872;DHT22;4472;52.092;9.820;2022-12-16T18:29:02;-2.10;99.90
8872;DHT22;4472;52.092;9.820;2022-12-16T18:32:10;-2.10;99.90
8872;DHT22;4472;52.092;9.820;2022-12-16T18:35:15;-2.10;99.90
8872;DHT22;4472;52.092;9.820;2022-12-16T18:38:19;-2.20;99.90
8872;DHT22;4472;52.092;9.820;2022-12-16T18:41:24;-2.20;99.90
8872;DHT22;4472;52.092;9.820;2022-12-16T18:44:29;-2.30;99.90
8872;DHT22;4472;52.092;9.820;2022-12-16T18:47:36;-1.80;99.90
8872;DHT22;4472;52.092;9.820;2022-12-16T18:50:40;-2.30;99.90
8872;DHT22;4472;52.092;9.820;2022-12-16T18:53:48;-2.30;99.90
8872;DHT22;4472;52.092;9.820;2022-12-16T18:56:52;-2.30;99.90
8872;DHT22;4472;52.092;9.820;2022-12-16T18:59:57;-2.30;99.90
8872;DHT22;4472;52.092;9.820;2022-12-16T19:03:03;-2.30;99.90
8872;DHT22;4472;52.092;9.820;2022-12-16T19:06:08;-2.30;99.90
8872;DHT22;4472;52.092;9.820;2022-12-16T19:09:13;-2.30;99.90
8872;DHT22;4472;52.092;9.820;2022-12-16T19:12:17;-2.30;99.90
8872;DHT22;4472;52.092;9.820;2022-12-16T19:15:22;-2.30;99.90
8872;DHT22;4472;52.092;9.820;2022-12-16T19:18:28;-2.30;99.90
8872;DHT22;4472;52.092;9.820;2022-12-16T19:21:33;-2.30;99.90
8872;DHT22;4472;52.092;9.820;2022-12-16T19:24:49;-2.40;99.90
8872;DHT22;4472;52.092;9.820;2022-12-16T19:27:54;-2.40;99.90
8872;DHT22;4472;52.092;9.820;2022-12-16T19:30:59;-2.40;99.90
8872;DHT22;4472;52.092;9.820;2022-12-16T19:34:07;-2.50;99.90
8872;DHT22;4472;52.092;9.820;2022-12-16T19:37:11;-2.40;99.90
8872;DHT22;4472;52.092;9.820;2022-12-16T19:40:16;-2.40;99.90
8872;DHT22;4472;52.092;9.820;2022-12-16T19:43:21;-2.30;99.90
8872;DHT22;4472;52.092;9.820;2022-12-16T19:46:26;-2.30;99.90
8872;DHT22;4472;52.092;9.820;2022-12-16T19:49:32;-2.30;99.90
8872;DHT22;4472;52.092;9.820;2022-12-16T19:52:36;-2.30;99.90
8872;DHT22;4472;52.092;9.820;2022-12-16T19:55:41;-2.30;99.90
8872;DHT22;4472;52.092;9.820;2022-12-16T19:58:46;-2.30;99.90
8872;DHT22;4472;52.092;9.820;2022-12-16T20:01:50;-2.30;99.90
8872;DHT22;4472;52.092;9.820;2022-12-16T20:04:56;-2.20;99.90
8872;DHT22;4472;52.092;9.820;2022-12-16T20:08:11;-2.20;99.90
8872;DHT22;4472;52.092;9.820;2022-12-16T20:11:16;-2.20;99.90
8872;DHT22;4472;52.092;9.820;2022-12-16T20:14:20;-2.20;99.90